sensor_id;sensor_type;location;lat;lon;timestamp;pressure;altitude;pressure_sealevel;temperature;humidity
71873;BME280;59745;52.924;-2.388;2022-10-04T00:02:49;99423.52;;;20.32;39.29
71873;BME280;59745;52.924;-2.388;2022-10-04T00:05:15;99426.49;;;20.66;39.32
71873;BME280;59745;52.924;-2.388;2022-10-04T00:07:44;99420.37;;;20.37;39.76
71873;BME280;59745;52.924;-2.388;2022-10-04T00:10:14;99421.61;;;20.42;40.29
71873;BME280;59745;52.924;-2.388;2022-10-04T00:12:32;99417.88;;;20.36;40.54
71873;BME280;59745;52.924;-2.388;2022-10-04T00:14:56;99416.06;;;20.35;40.67
71873;BME280;59745;52.924;-2.388;2022-10-04T00:17:21;99410.57;;;20.01;40.97
71873;BME280;59745;52.924;-2.388;2022-10-04T00:19:45;99407.98;;;20.03;41.12
71873;BME280;59745;52.924;-2.388;2022-10-04T00:22:18;99403.69;;;20.31;41.28
71873;BME280;59745;52.924;-2.388;2022-10-04T00:24:35;99400.67;;;20.47;41.01
71873;BME280;59745;52.924;-2.388;2022-10-04T00:27:09;99393.08;;;20.51;40.99
71873;BME280;59745;52.924;-2.388;2022-10-04T00:29:32;99390.35;;;20.19;41.10
71873;BME280;59745;52.924;-2.388;2022-10-04T00:36:45;99383.78;;;20.66;40.63
71873;BME280;59745;52.924;-2.388;2022-10-04T00:41:35;99379.96;;;20.68;39.97
71873;BME280;59745;52.924;-2.388;2022-10-04T00:43:57;99376.01;;;20.51;40.27
71873;BME280;59745;52.924;-2.388;2022-10-04T00:46:23;99380.23;;;20.32;40.37
71873;BME280;59745;52.924;-2.388;2022-10-04T00:48:49;99377.44;;;20.43;40.99
71873;BME280;59745;52.924;-2.388;2022-10-04T00:51:21;99386.19;;;20.47;40.34
71873;BME280;59745;52.924;-2.388;2022-10-04T00:53:47;99379.13;;;20.62;40.46
71873;BME280;59745;52.924;-2.388;2022-10-04T00:56:05;99369.90;;;20.52;40.69
71873;BME280;59745;52.924;-2.388;2022-10-04T00:58:30;99358.53;;;20.16;41.17
71873;BME280;59745;52.924;-2.388;2022-10-04T01:00:54;99350.59;;;20.25;40.91
71873;BME280;59745;52.924;-2.388;2022-10-04T01:03:21;99342.26;;;20.68;40.78
71873;BME280;59745;52.924;-2.388;2022-10-04T01:05:45;99332.23;;;20.31;41.11
71873;BME280;59745;52.924;-2.388;2022-10-04T01:08:16;99326.19;;;20.47;41.47
71873;BME280;59745;52.924;-2.388;2022-10-04T01:10:39;99331.48;;;20.36;41.69
71873;BME280;59745;52.924;-2.388;2022-10-04T01:13:05;99341.82;;;20.02;42.24
71873;BME280;59745;52.924;-2.388;2022-10-04T01:15:30;99318.71;;;20.06;42.83
71873;BME280;59745;52.924;-2.388;2022-10-04T01:20:31;99309.40;;;20.12;43.55
71873;BME280;59745;52.924;-2.388;2022-10-04T01:22:42;99300.71;;;19.95;43.26
71873;BME280;59745;52.924;-2.388;2022-10-04T01:25:05;99296.42;;;19.97;42.98
71873;BME280;59745;52.924;-2.388;2022-10-04T01:27:33;99290.43;;;20.21;42.84
71873;BME280;59745;52.924;-2.388;2022-10-04T01:29:55;99278.84;;;20.21;42.87
71873;BME280;59745;52.924;-2.388;2022-10-04T01:32:20;99270.72;;;19.58;43.29
71873;BME280;59745;52.924;-2.388;2022-10-04T01:34:46;99274.45;;;19.86;43.30
71873;BME280;59745;52.924;-2.388;2022-10-04T01:37:11;99274.20;;;20.08;43.08
71873;BME280;59745;52.924;-2.388;2022-10-04T01:39:36;99279.11;;;20.14;42.47
71873;BME280;59745;52.924;-2.388;2022-10-04T01:42:06;99267.95;;;20.25;42.33
71873;BME280;59745;52.924;-2.388;2022-10-04T01:44:31;99263.24;;;20.30;42.04
71873;BME280;59745;52.924;-2.388;2022-10-04T01:46:55;99258.42;;;20.15;42.21
71873;BME280;59745;52.924;-2.388;2022-10-04T01:49:19;99259.24;;;19.83;42.53
71873;BME280;59745;52.924;-2.388;2022-10-04T01:51:46;99258.93;;;20.51;42.19
71873;BME280;59745;52.924;-2.388;2022-10-04T01:54:19;99260.09;;;20.68;42.04
71873;BME280;59745;52.924;-2.388;2022-10-04T01:56:38;99258.32;;;20.38;42.61
71873;BME280;59745;52.924;-2.388;2022-10-04T01:58:59;99261.65;;;20.59;42.20
71873;BME280;59745;52.924;-2.388;2022-10-04T02:01:26;99254.97;;;20.31;42.24
71873;BME280;59745;52.924;-2.388;2022-10-04T10:31:52;98906.37;;;19.47;51.35
71873;BME280;59745;52.924;-2.388;2022-10-04T10:35:54;98891.37;;;22.04;41.13
71873;BME280;59745;52.924;-2.388;2022-10-04T10:38:22;98904.05;;;24.11;36.50
71873;BME280;59745;52.924;-2.388;2022-10-04T10:40:49;98902.84;;;25.29;34.50
71873;BME280;59745;52.924;-2.388;2022-10-04T10:45:35;98899.71;;;26.82;32.67
71873;BME280;59745;52.924;-2.388;2022-10-04T10:47:53;98900.13;;;27.06;30.79
71873;BME280;59745;52.924;-2.388;2022-10-04T10:50:33;98897.17;;;27.36;29.96
71873;BME280;59745;52.924;-2.388;2022-10-04T10:55:16;98890.91;;;27.47;29.44
